sensor_id;sensor_type;location;lat;lon;timestamp;P1;durP1;ratioP1;P2;durP2;ratioP2
72439;SDS011;60446;50.752;4.352;2023-05-07T00:00:21;8.93;;;3.60;;
72439;SDS011;60446;50.752;4.352;2023-05-07T00:02:49;8.88;;;3.40;;
72439;SDS011;60446;50.752;4.352;2023-05-07T00:05:16;11.67;;;4.27;;
72439;SDS011;60446;50.752;4.352;2023-05-07T00:07:43;7.82;;;3.42;;
72439;SDS011;60446;50.752;4.352;2023-05-07T00:10:11;10.75;;;3.92;;
72439;SDS011;60446;50.752;4.352;2023-05-07T00:12:39;11.40;;;4.07;;
72439;SDS011;60446;50.752;4.352;2023-05-07T00:15:07;9.90;;;3.50;;
72439;SDS011;60446;50.752;4.352;2023-05-07T00:17:35;9.87;;;3.40;;
72439;SDS011;60446;50.752;4.352;2023-05-07T00:20:03;11.25;;;3.45;;
72439;SDS011;60446;50.752;4.352;2023-05-07T00:22:31;11.23;;;3.38;;
72439;SDS011;60446;50.752;4.352;2023-05-07T00:24:58;10.20;;;3.17;;
72439;SDS011;60446;50.752;4.352;2023-05-07T00:27:26;11.63;;;3.70;;
72439;SDS011;60446;50.752;4.352;2023-05-07T00:29:53;10.00;;;3.53;;
72439;SDS011;60446;50.752;4.352;2023-05-07T00:32:20;7.22;;;2.83;;
72439;SDS011;60446;50.752;4.352;2023-05-07T00:34:48;9.25;;;3.20;;
72439;SDS011;60446;50.752;4.352;2023-05-07T00:37:15;8.57;;;3.35;;
72439;SDS011;60446;50.752;4.352;2023-05-07T00:39:42;9.80;;;3.45;;
72439;SDS011;60446;50.752;4.352;2023-05-07T00:42:10;10.57;;;3.30;;
72439;SDS011;60446;50.752;4.352;2023-05-07T00:44:37;11.10;;;3.17;;
72439;SDS011;60446;50.752;4.352;2023-05-07T00:47:04;10.63;;;3.50;;
72439;SDS011;60446;50.752;4.352;2023-05-07T00:49:37;9.25;;;3.20;;
72439;SDS011;60446;50.752;4.352;2023-05-07T00:52:09;8.68;;;3.60;;
72439;SDS011;60446;50.752;4.352;2023-05-07T00:54:40;8.53;;;3.23;;
72439;SDS011;60446;50.752;4.352;2023-05-07T00:57:11;12.57;;;3.40;;
72439;SDS011;60446;50.752;4.352;2023-05-07T00:59:38;10.65;;;3.35;;
72439;SDS011;60446;50.752;4.352;2023-05-07T01:02:07;10.43;;;3.67;;
72439;SDS011;60446;50.752;4.352;2023-05-07T01:04:34;8.88;;;2.85;;
72439;SDS011;60446;50.752;4.352;2023-05-07T01:07:02;7.93;;;3.10;;
72439;SDS011;60446;50.752;4.352;2023-05-07T01:09:31;9.35;;;3.15;;
72439;SDS011;60446;50.752;4.352;2023-05-07T01:11:58;9.07;;;3.30;;
72439;SDS011;60446;50.752;4.352;2023-05-07T01:14:26;11.52;;;3.17;;
72439;SDS011;60446;50.752;4.352;2023-05-07T01:16:54;10.80;;;3.50;;
72439;SDS011;60446;50.752;4.352;2023-05-07T01:19:23;11.13;;;3.43;;
72439;SDS011;60446;50.752;4.352;2023-05-07T01:21:50;10.32;;;3.42;;
72439;SDS011;60446;50.752;4.352;2023-05-07T01:24:25;11.25;;;4.03;;
72439;SDS011;60446;50.752;4.352;2023-05-07T01:26:52;9.60;;;3.60;;
72439;SDS011;60446;50.752;4.352;2023-05-07T01:29:19;8.75;;;3.13;;
72439;SDS011;60446;50.752;4.352;2023-05-07T01:31:47;11.33;;;3.37;;
72439;SDS011;60446;50.752;4.352;2023-05-07T01:34:17;9.52;;;3.67;;
72439;SDS011;60446;50.752;4.352;2023-05-07T01:36:46;12.98;;;3.42;;
72439;SDS011;60446;50.752;4.352;2023-05-07T01:39:14;8.73;;;3.10;;
72439;SDS011;60446;50.752;4.352;2023-05-07T01:41:42;9.90;;;3.90;;
72439;SDS011;60446;50.752;4.352;2023-05-07T01:44:10;9.37;;;3.20;;
72439;SDS011;60446;50.752;4.352;2023-05-07T01:46:40;12.73;;;4.00;;
72439;SDS011;60446;50.752;4.352;2023-05-07T01:49:07;10.20;;;3.88;;
72439;SDS011;60446;50.752;4.352;2023-05-07T01:51:34;10.70;;;3.60;;
72439;SDS011;60446;50.752;4.352;2023-05-07T01:54:02;11.23;;;3.13;;
72439;SDS011;60446;50.752;4.352;2023-05-07T01:56:30;10.17;;;3.70;;
72439;SDS011;60446;50.752;4.352;2023-05-07T01:58:57;8.82;;;3.45;;
72439;SDS011;60446;50.752;4.352;2023-05-07T02:01:26;10.13;;;3.80;;
72439;SDS011;60446;50.752;4.352;2023-05-07T02:03:54;12.10;;;4.07;;
72439;SDS011;60446;50.752;4.352;2023-05-07T02:06:24;8.68;;;3.13;;
72439;SDS011;60446;50.752;4.352;2023-05-07T02:08:56;10.43;;;3.43;;
72439;SDS011;60446;50.752;4.352;2023-05-07T02:11:23;8.70;;;3.25;;
72439;SDS011;60446;50.752;4.352;2023-05-07T02:13:51;8.50;;;3.53;;
72439;SDS011;60446;50.752;4.352;2023-05-07T02:16:19;9.63;;;3.40;;
72439;SDS011;60446;50.752;4.352;2023-05-07T02:18:47;8.90;;;3.55;;
72439;SDS011;60446;50.752;4.352;2023-05-07T02:21:14;14.40;;;3.63;;
72439;SDS011;60446;50.752;4.352;2023-05-07T02:23:42;9.82;;;3.78;;
72439;SDS011;60446;50.752;4.352;2023-05-07T02:26:09;10.00;;;4.03;;
72439;SDS011;60446;50.752;4.352;2023-05-07T02:28:37;11.13;;;4.03;;
72439;SDS011;60446;50.752;4.352;2023-05-07T02:31:05;11.63;;;3.33;;
72439;SDS011;60446;50.752;4.352;2023-05-07T02:33:33;12.13;;;3.83;;
72439;SDS011;60446;50.752;4.352;2023-05-07T02:36:07;8.13;;;3.17;;
72439;SDS011;60446;50.752;4.352;2023-05-07T02:38:42;9.93;;;3.63;;
72439;SDS011;60446;50.752;4.352;2023-05-07T02:41:10;11.23;;;3.40;;
72439;SDS011;60446;50.752;4.352;2023-05-07T02:43:37;11.85;;;4.40;;
72439;SDS011;60446;50.752;4.352;2023-05-07T02:46:05;15.40;;;3.47;;
72439;SDS011;60446;50.752;4.352;2023-05-07T02:48:37;9.35;;;3.33;;
72439;SDS011;60446;50.752;4.352;2023-05-07T02:51:04;10.00;;;3.83;;
72439;SDS011;60446;50.752;4.352;2023-05-07T02:53:33;12.05;;;3.80;;
72439;SDS011;60446;50.752;4.352;2023-05-07T02:56:01;9.68;;;3.50;;
72439;SDS011;60446;50.752;4.352;2023-05-07T02:58:28;10.83;;;3.53;;
72439;SDS011;60446;50.752;4.352;2023-05-07T03:00:57;12.13;;;3.72;;
72439;SDS011;60446;50.752;4.352;2023-05-07T03:03:51;12.55;;;3.88;;
72439;SDS011;60446;50.752;4.352;2023-05-07T03:06:18;10.15;;;3.05;;
72439;SDS011;60446;50.752;4.352;2023-05-07T03:08:45;12.32;;;3.55;;
72439;SDS011;60446;50.752;4.352;2023-05-07T03:11:13;11.10;;;4.10;;
72439;SDS011;60446;50.752;4.352;2023-05-07T03:13:41;10.93;;;3.95;;
72439;SDS011;60446;50.752;4.352;2023-05-07T03:16:08;10.18;;;4.15;;
72439;SDS011;60446;50.752;4.352;2023-05-07T03:18:35;11.90;;;3.83;;
72439;SDS011;60446;50.752;4.352;2023-05-07T03:21:02;10.73;;;3.53;;
72439;SDS011;60446;50.752;4.352;2023-05-07T03:23:29;15.33;;;3.87;;
72439;SDS011;60446;50.752;4.352;2023-05-07T03:25:56;9.25;;;3.50;;
72439;SDS011;60446;50.752;4.352;2023-05-07T03:28:23;10.07;;;3.63;;
72439;SDS011;60446;50.752;4.352;2023-05-07T03:30:56;10.05;;;3.78;;
72439;SDS011;60446;50.752;4.352;2023-05-07T03:33:23;11.73;;;3.22;;
72439;SDS011;60446;50.752;4.352;2023-05-07T03:35:50;14.17;;;3.80;;
72439;SDS011;60446;50.752;4.352;2023-05-07T03:38:22;9.93;;;4.00;;
72439;SDS011;60446;50.752;4.352;2023-05-07T03:40:49;10.50;;;3.63;;
72439;SDS011;60446;50.752;4.352;2023-05-07T03:43:17;11.10;;;3.33;;
72439;SDS011;60446;50.752;4.352;2023-05-07T03:45:49;12.02;;;3.65;;
72439;SDS011;60446;50.752;4.352;2023-05-07T03:48:21;8.63;;;3.13;;
72439;SDS011;60446;50.752;4.352;2023-05-07T03:50:50;10.63;;;3.40;;
72439;SDS011;60446;50.752;4.352;2023-05-07T03:53:18;10.27;;;3.70;;
72439;SDS011;60446;50.752;4.352;2023-05-07T03:55:45;13.35;;;3.65;;
72439;SDS011;60446;50.752;4.352;2023-05-07T03:58:13;12.40;;;3.35;;
72439;SDS011;60446;50.752;4.352;2023-05-07T04:00:40;10.07;;;3.43;;
72439;SDS011;60446;50.752;4.352;2023-05-07T04:03:21;12.45;;;3.53;;
72439;SDS011;60446;50.752;4.352;2023-05-07T04:05:48;11.38;;;3.70;;
72439;SDS011;60446;50.752;4.352;2023-05-07T04:08:16;11.18;;;3.55;;
72439;SDS011;60446;50.752;4.352;2023-05-07T04:10:46;8.82;;;3.65;;
72439;SDS011;60446;50.752;4.352;2023-05-07T04:13:14;8.33;;;3.40;;
72439;SDS011;60446;50.752;4.352;2023-05-07T04:15:41;8.23;;;3.10;;
72439;SDS011;60446;50.752;4.352;2023-05-07T04:18:11;8.85;;;3.22;;
72439;SDS011;60446;50.752;4.352;2023-05-07T04:20:40;11.55;;;3.47;;
72439;SDS011;60446;50.752;4.352;2023-05-07T04:23:11;8.65;;;3.17;;
72439;SDS011;60446;50.752;4.352;2023-05-07T04:25:38;9.57;;;3.10;;
72439;SDS011;60446;50.752;4.352;2023-05-07T04:28:11;9.30;;;3.33;;
72439;SDS011;60446;50.752;4.352;2023-05-07T04:30:39;14.73;;;3.17;;
72439;SDS011;60446;50.752;4.352;2023-05-07T04:33:08;7.95;;;2.72;;
72439;SDS011;60446;50.752;4.352;2023-05-07T04:35:37;9.00;;;2.78;;
72439;SDS011;60446;50.752;4.352;2023-05-07T04:38:05;7.17;;;3.00;;
72439;SDS011;60446;50.752;4.352;2023-05-07T04:40:32;12.50;;;3.92;;
72439;SDS011;60446;50.752;4.352;2023-05-07T04:43:02;10.20;;;3.20;;
72439;SDS011;60446;50.752;4.352;2023-05-07T04:45:33;10.88;;;3.05;;
72439;SDS011;60446;50.752;4.352;2023-05-07T04:48:02;10.57;;;3.15;;
72439;SDS011;60446;50.752;4.352;2023-05-07T04:50:31;8.90;;;3.07;;
72439;SDS011;60446;50.752;4.352;2023-05-07T04:53:00;9.30;;;3.33;;
72439;SDS011;60446;50.752;4.352;2023-05-07T04:55:29;7.40;;;3.17;;
72439;SDS011;60446;50.752;4.352;2023-05-07T04:57:57;10.27;;;3.08;;
72439;SDS011;60446;50.752;4.352;2023-05-07T05:00:24;8.98;;;2.80;;
72439;SDS011;60446;50.752;4.352;2023-05-07T05:02:52;9.17;;;2.80;;
72439;SDS011;60446;50.752;4.352;2023-05-07T05:05:21;9.48;;;3.25;;
72439;SDS011;60446;50.752;4.352;2023-05-07T05:07:51;11.23;;;3.35;;
72439;SDS011;60446;50.752;4.352;2023-05-07T05:10:19;9.23;;;2.85;;
72439;SDS011;60446;50.752;4.352;2023-05-07T05:12:50;7.55;;;3.22;;
72439;SDS011;60446;50.752;4.352;2023-05-07T05:15:19;10.70;;;3.10;;
72439;SDS011;60446;50.752;4.352;2023-05-07T05:17:46;8.20;;;2.90;;
72439;SDS011;60446;50.752;4.352;2023-05-07T05:20:14;7.68;;;3.20;;
72439;SDS011;60446;50.752;4.352;2023-05-07T05:22:42;10.20;;;3.10;;
72439;SDS011;60446;50.752;4.352;2023-05-07T05:25:11;11.07;;;3.28;;
72439;SDS011;60446;50.752;4.352;2023-05-07T05:27:38;11.53;;;3.50;;
72439;SDS011;60446;50.752;4.352;2023-05-07T05:30:07;9.65;;;3.47;;
72439;SDS011;60446;50.752;4.352;2023-05-07T05:32:36;12.25;;;4.53;;
72439;SDS011;60446;50.752;4.352;2023-05-07T05:35:04;8.35;;;3.53;;
72439;SDS011;60446;50.752;4.352;2023-05-07T05:37:32;9.88;;;3.42;;
72439;SDS011;60446;50.752;4.352;2023-05-07T05:40:01;14.07;;;3.60;;
72439;SDS011;60446;50.752;4.352;2023-05-07T05:42:30;9.10;;;3.38;;
72439;SDS011;60446;50.752;4.352;2023-05-07T05:44:57;9.32;;;3.28;;
72439;SDS011;60446;50.752;4.352;2023-05-07T05:47:25;10.77;;;2.83;;
72439;SDS011;60446;50.752;4.352;2023-05-07T05:49:54;9.90;;;3.42;;
72439;SDS011;60446;50.752;4.352;2023-05-07T05:52:21;10.73;;;3.30;;
72439;SDS011;60446;50.752;4.352;2023-05-07T05:54:50;12.35;;;3.20;;
72439;SDS011;60446;50.752;4.352;2023-05-07T05:57:18;8.80;;;3.20;;
72439;SDS011;60446;50.752;4.352;2023-05-07T05:59:46;12.13;;;3.42;;
72439;SDS011;60446;50.752;4.352;2023-05-07T06:02:13;9.68;;;2.63;;
72439;SDS011;60446;50.752;4.352;2023-05-07T06:04:41;17.40;;;4.53;;
72439;SDS011;60446;50.752;4.352;2023-05-07T06:07:11;10.48;;;2.85;;
72439;SDS011;60446;50.752;4.352;2023-05-07T06:09:39;7.72;;;2.70;;
72439;SDS011;60446;50.752;4.352;2023-05-07T06:12:07;10.02;;;2.97;;
72439;SDS011;60446;50.752;4.352;2023-05-07T06:14:34;8.93;;;3.28;;
72439;SDS011;60446;50.752;4.352;2023-05-07T06:17:02;8.77;;;2.53;;
72439;SDS011;60446;50.752;4.352;2023-05-07T06:19:29;9.68;;;2.83;;
72439;SDS011;60446;50.752;4.352;2023-05-07T06:21:57;11.63;;;3.35;;
72439;SDS011;60446;50.752;4.352;2023-05-07T06:24:27;12.10;;;3.33;;
72439;SDS011;60446;50.752;4.352;2023-05-07T06:26:55;9.68;;;3.13;;
72439;SDS011;60446;50.752;4.352;2023-05-07T06:29:26;11.00;;;3.17;;
72439;SDS011;60446;50.752;4.352;2023-05-07T06:31:54;9.32;;;3.45;;
72439;SDS011;60446;50.752;4.352;2023-05-07T06:34:22;11.43;;;4.30;;
72439;SDS011;60446;50.752;4.352;2023-05-07T06:36:49;10.75;;;4.38;;
72439;SDS011;60446;50.752;4.352;2023-05-07T06:39:27;11.63;;;3.58;;
72439;SDS011;60446;50.752;4.352;2023-05-07T06:41:54;10.27;;;3.33;;
72439;SDS011;60446;50.752;4.352;2023-05-07T06:44:25;13.75;;;3.95;;
72439;SDS011;60446;50.752;4.352;2023-05-07T06:47:06;11.45;;;3.40;;
72439;SDS011;60446;50.752;4.352;2023-05-07T06:49:34;12.18;;;3.45;;
72439;SDS011;60446;50.752;4.352;2023-05-07T06:52:01;8.95;;;3.45;;
72439;SDS011;60446;50.752;4.352;2023-05-07T06:54:29;8.83;;;3.30;;
72439;SDS011;60446;50.752;4.352;2023-05-07T06:56:57;10.30;;;3.70;;
72439;SDS011;60446;50.752;4.352;2023-05-07T06:59:26;9.70;;;3.35;;
72439;SDS011;60446;50.752;4.352;2023-05-07T07:01:53;14.85;;;3.80;;
72439;SDS011;60446;50.752;4.352;2023-05-07T07:04:21;9.05;;;3.40;;
72439;SDS011;60446;50.752;4.352;2023-05-07T07:06:59;11.10;;;3.77;;
72439;SDS011;60446;50.752;4.352;2023-05-07T07:09:27;11.50;;;3.63;;
72439;SDS011;60446;50.752;4.352;2023-05-07T07:11:54;12.73;;;4.03;;
72439;SDS011;60446;50.752;4.352;2023-05-07T07:14:22;8.60;;;3.35;;
72439;SDS011;60446;50.752;4.352;2023-05-07T07:16:52;10.20;;;3.88;;
72439;SDS011;60446;50.752;4.352;2023-05-07T07:19:20;10.73;;;3.60;;
72439;SDS011;60446;50.752;4.352;2023-05-07T07:21:51;10.65;;;4.53;;
72439;SDS011;60446;50.752;4.352;2023-05-07T07:24:18;12.45;;;4.38;;
72439;SDS011;60446;50.752;4.352;2023-05-07T07:26:52;11.57;;;3.70;;
72439;SDS011;60446;50.752;4.352;2023-05-07T07:29:20;11.35;;;3.78;;
72439;SDS011;60446;50.752;4.352;2023-05-07T07:31:48;8.83;;;3.83;;
72439;SDS011;60446;50.752;4.352;2023-05-07T07:34:17;12.40;;;4.00;;
72439;SDS011;60446;50.752;4.352;2023-05-07T07:36:45;10.35;;;3.85;;
72439;SDS011;60446;50.752;4.352;2023-05-07T07:39:15;10.68;;;3.65;;
72439;SDS011;60446;50.752;4.352;2023-05-07T07:41:44;11.30;;;4.15;;
72439;SDS011;60446;50.752;4.352;2023-05-07T07:44:12;9.00;;;3.80;;
72439;SDS011;60446;50.752;4.352;2023-05-07T07:46:45;12.25;;;4.80;;
72439;SDS011;60446;50.752;4.352;2023-05-07T07:49:13;11.80;;;4.35;;
72439;SDS011;60446;50.752;4.352;2023-05-07T07:51:41;10.77;;;4.20;;
72439;SDS011;60446;50.752;4.352;2023-05-07T07:54:10;9.93;;;3.70;;
72439;SDS011;60446;50.752;4.352;2023-05-07T07:56:38;11.40;;;4.10;;
72439;SDS011;60446;50.752;4.352;2023-05-07T07:59:06;13.93;;;4.70;;
72439;SDS011;60446;50.752;4.352;2023-05-07T08:01:36;14.00;;;4.60;;
72439;SDS011;60446;50.752;4.352;2023-05-07T08:04:04;11.35;;;4.07;;
72439;SDS011;60446;50.752;4.352;2023-05-07T08:06:35;10.25;;;4.32;;
72439;SDS011;60446;50.752;4.352;2023-05-07T08:09:03;10.60;;;4.17;;
72439;SDS011;60446;50.752;4.352;2023-05-07T08:11:30;10.40;;;4.00;;
72439;SDS011;60446;50.752;4.352;2023-05-07T08:13:58;10.95;;;4.43;;
72439;SDS011;60446;50.752;4.352;2023-05-07T08:16:25;9.70;;;3.80;;
72439;SDS011;60446;50.752;4.352;2023-05-07T08:18:53;8.90;;;3.78;;
72439;SDS011;60446;50.752;4.352;2023-05-07T08:21:21;12.80;;;3.60;;
72439;SDS011;60446;50.752;4.352;2023-05-07T08:23:49;9.45;;;3.92;;
72439;SDS011;60446;50.752;4.352;2023-05-07T08:26:16;11.20;;;3.85;;
72439;SDS011;60446;50.752;4.352;2023-05-07T08:28:43;12.30;;;3.33;;
72439;SDS011;60446;50.752;4.352;2023-05-07T08:31:10;10.70;;;3.97;;
72439;SDS011;60446;50.752;4.352;2023-05-07T08:33:40;10.67;;;3.93;;
72439;SDS011;60446;50.752;4.352;2023-05-07T08:36:07;9.48;;;3.45;;
72439;SDS011;60446;50.752;4.352;2023-05-07T08:38:34;7.25;;;3.10;;
72439;SDS011;60446;50.752;4.352;2023-05-07T08:41:02;9.90;;;3.42;;
72439;SDS011;60446;50.752;4.352;2023-05-07T08:43:30;8.88;;;3.22;;
72439;SDS011;60446;50.752;4.352;2023-05-07T08:46:00;10.20;;;3.37;;
72439;SDS011;60446;50.752;4.352;2023-05-07T08:48:32;10.45;;;3.67;;
72439;SDS011;60446;50.752;4.352;2023-05-07T08:51:13;7.63;;;3.33;;
72439;SDS011;60446;50.752;4.352;2023-05-07T08:53:43;11.32;;;3.38;;
72439;SDS011;60446;50.752;4.352;2023-05-07T08:56:15;8.23;;;3.25;;
72439;SDS011;60446;50.752;4.352;2023-05-07T08:58:47;8.13;;;3.30;;
72439;SDS011;60446;50.752;4.352;2023-05-07T09:01:15;9.10;;;2.90;;
72439;SDS011;60446;50.752;4.352;2023-05-07T09:03:47;9.07;;;3.03;;
72439;SDS011;60446;50.752;4.352;2023-05-07T09:06:15;8.75;;;3.20;;
72439;SDS011;60446;50.752;4.352;2023-05-07T09:08:48;9.27;;;2.72;;
72439;SDS011;60446;50.752;4.352;2023-05-07T09:11:23;8.30;;;2.77;;
72439;SDS011;60446;50.752;4.352;2023-05-07T09:13:54;9.05;;;2.60;;
72439;SDS011;60446;50.752;4.352;2023-05-07T09:16:25;7.13;;;2.80;;
72439;SDS011;60446;50.752;4.352;2023-05-07T09:18:54;8.00;;;3.00;;
72439;SDS011;60446;50.752;4.352;2023-05-07T09:21:23;8.63;;;3.60;;
72439;SDS011;60446;50.752;4.352;2023-05-07T09:23:53;7.97;;;3.20;;
72439;SDS011;60446;50.752;4.352;2023-05-07T09:26:32;9.35;;;3.42;;
72439;SDS011;60446;50.752;4.352;2023-05-07T09:29:02;8.50;;;3.72;;
72439;SDS011;60446;50.752;4.352;2023-05-07T09:31:30;9.40;;;3.47;;
72439;SDS011;60446;50.752;4.352;2023-05-07T09:33:57;9.10;;;3.47;;
72439;SDS011;60446;50.752;4.352;2023-05-07T09:36:27;8.90;;;2.70;;
72439;SDS011;60446;50.752;4.352;2023-05-07T09:38:56;9.25;;;3.22;;
72439;SDS011;60446;50.752;4.352;2023-05-07T09:41:27;7.30;;;3.05;;
72439;SDS011;60446;50.752;4.352;2023-05-07T09:44:11;9.65;;;2.70;;
72439;SDS011;60446;50.752;4.352;2023-05-07T09:46:44;7.18;;;2.72;;
72439;SDS011;60446;50.752;4.352;2023-05-07T09:49:25;8.20;;;3.60;;
72439;SDS011;60446;50.752;4.352;2023-05-07T09:52:02;7.13;;;2.90;;
72439;SDS011;60446;50.752;4.352;2023-05-07T09:54:39;11.50;;;3.17;;
72439;SDS011;60446;50.752;4.352;2023-05-07T09:57:12;8.82;;;2.50;;
72439;SDS011;60446;50.752;4.352;2023-05-07T09:59:43;7.85;;;2.30;;
72439;SDS011;60446;50.752;4.352;2023-05-07T10:02:15;5.77;;;1.87;;
72439;SDS011;60446;50.752;4.352;2023-05-07T10:04:47;7.70;;;2.38;;
72439;SDS011;60446;50.752;4.352;2023-05-07T10:07:19;7.68;;;1.98;;
72439;SDS011;60446;50.752;4.352;2023-05-07T10:09:50;5.78;;;1.75;;
72439;SDS011;60446;50.752;4.352;2023-05-07T10:12:29;5.65;;;1.92;;
72439;SDS011;60446;50.752;4.352;2023-05-07T10:15:06;6.40;;;1.67;;
72439;SDS011;60446;50.752;4.352;2023-05-07T10:17:35;6.63;;;2.28;;
72439;SDS011;60446;50.752;4.352;2023-05-07T10:20:07;6.32;;;2.08;;
72439;SDS011;60446;50.752;4.352;2023-05-07T10:22:40;7.40;;;2.05;;
72439;SDS011;60446;50.752;4.352;2023-05-07T10:25:34;6.90;;;2.60;;
72439;SDS011;60446;50.752;4.352;2023-05-07T10:28:07;6.00;;;2.03;;
72439;SDS011;60446;50.752;4.352;2023-05-07T10:33:42;6.35;;;2.22;;
72439;SDS011;60446;50.752;4.352;2023-05-07T10:36:12;5.43;;;2.10;;
72439;SDS011;60446;50.752;4.352;2023-05-07T10:38:40;9.15;;;2.42;;
72439;SDS011;60446;50.752;4.352;2023-05-07T10:41:08;4.30;;;1.63;;
72439;SDS011;60446;50.752;4.352;2023-05-07T10:43:40;7.80;;;1.77;;
72439;SDS011;60446;50.752;4.352;2023-05-07T10:46:20;5.45;;;1.90;;
72439;SDS011;60446;50.752;4.352;2023-05-07T10:49:09;6.53;;;1.92;;
72439;SDS011;60446;50.752;4.352;2023-05-07T10:51:46;6.50;;;2.10;;
72439;SDS011;60446;50.752;4.352;2023-05-07T10:55:38;4.90;;;1.83;;
72439;SDS011;60446;50.752;4.352;2023-05-07T11:01:10;6.25;;;2.17;;
72439;SDS011;60446;50.752;4.352;2023-05-07T11:15:35;7.35;;;2.58;;
72439;SDS011;60446;50.752;4.352;2023-05-07T11:18:21;7.32;;;2.55;;
72439;SDS011;60446;50.752;4.352;2023-05-07T11:26:14;6.07;;;2.10;;
72439;SDS011;60446;50.752;4.352;2023-05-07T11:28:43;6.45;;;2.60;;
72439;SDS011;60446;50.752;4.352;2023-05-07T11:31:11;7.53;;;2.50;;
72439;SDS011;60446;50.752;4.352;2023-05-07T11:33:39;5.72;;;2.08;;
72439;SDS011;60446;50.752;4.352;2023-05-07T11:36:12;6.93;;;2.43;;
72439;SDS011;60446;50.752;4.352;2023-05-07T11:38:45;5.85;;;2.28;;
72439;SDS011;60446;50.752;4.352;2023-05-07T11:41:12;5.95;;;2.30;;
72439;SDS011;60446;50.752;4.352;2023-05-07T11:43:53;6.72;;;2.63;;
72439;SDS011;60446;50.752;4.352;2023-05-07T11:46:25;7.00;;;2.58;;
72439;SDS011;60446;50.752;4.352;2023-05-07T11:48:54;6.27;;;2.80;;
72439;SDS011;60446;50.752;4.352;2023-05-07T11:51:23;5.45;;;2.22;;
72439;SDS011;60446;50.752;4.352;2023-05-07T11:53:52;6.75;;;2.72;;
72439;SDS011;60446;50.752;4.352;2023-05-07T11:56:20;6.15;;;2.45;;
72439;SDS011;60446;50.752;4.352;2023-05-07T11:58:47;7.00;;;2.60;;
72439;SDS011;60446;50.752;4.352;2023-05-07T12:01:15;8.07;;;3.40;;
72439;SDS011;60446;50.752;4.352;2023-05-07T12:03:43;9.07;;;3.40;;
72439;SDS011;60446;50.752;4.352;2023-05-07T12:06:13;9.05;;;3.15;;
72439;SDS011;60446;50.752;4.352;2023-05-07T12:08:42;7.18;;;3.22;;
72439;SDS011;60446;50.752;4.352;2023-05-07T12:11:14;7.13;;;2.95;;
72439;SDS011;60446;50.752;4.352;2023-05-07T12:13:49;9.17;;;3.17;;
72439;SDS011;60446;50.752;4.352;2023-05-07T12:16:16;6.95;;;3.20;;
72439;SDS011;60446;50.752;4.352;2023-05-07T12:18:44;8.15;;;3.25;;
72439;SDS011;60446;50.752;4.352;2023-05-07T12:21:13;8.23;;;3.53;;
72439;SDS011;60446;50.752;4.352;2023-05-07T12:23:40;7.85;;;3.88;;
72439;SDS011;60446;50.752;4.352;2023-05-07T12:26:07;8.73;;;4.33;;
72439;SDS011;60446;50.752;4.352;2023-05-07T12:28:38;8.68;;;4.60;;
72439;SDS011;60446;50.752;4.352;2023-05-07T12:31:06;11.52;;;5.03;;
72439;SDS011;60446;50.752;4.352;2023-05-07T12:33:34;13.00;;;5.45;;
72439;SDS011;60446;50.752;4.352;2023-05-07T12:36:03;12.60;;;5.20;;
72439;SDS011;60446;50.752;4.352;2023-05-07T12:38:37;13.90;;;5.73;;
72439;SDS011;60446;50.752;4.352;2023-05-07T12:41:07;12.63;;;5.88;;
72439;SDS011;60446;50.752;4.352;2023-05-07T12:43:36;13.10;;;6.20;;
72439;SDS011;60446;50.752;4.352;2023-05-07T12:46:05;13.13;;;5.40;;
72439;SDS011;60446;50.752;4.352;2023-05-07T12:48:36;13.35;;;6.00;;
72439;SDS011;60446;50.752;4.352;2023-05-07T12:51:05;13.53;;;5.60;;
72439;SDS011;60446;50.752;4.352;2023-05-07T12:53:33;13.15;;;5.63;;
72439;SDS011;60446;50.752;4.352;2023-05-07T12:56:08;11.98;;;4.93;;
72439;SDS011;60446;50.752;4.352;2023-05-07T12:58:36;11.75;;;5.63;;
72439;SDS011;60446;50.752;4.352;2023-05-07T13:01:07;11.90;;;4.78;;
72439;SDS011;60446;50.752;4.352;2023-05-07T13:03:37;13.50;;;5.27;;
72439;SDS011;60446;50.752;4.352;2023-05-07T13:06:06;12.45;;;5.90;;
72439;SDS011;60446;50.752;4.352;2023-05-07T13:08:41;10.75;;;4.75;;
72439;SDS011;60446;50.752;4.352;2023-05-07T13:11:12;12.43;;;4.75;;
72439;SDS011;60446;50.752;4.352;2023-05-07T13:13:40;11.95;;;4.97;;
72439;SDS011;60446;50.752;4.352;2023-05-07T13:16:08;10.60;;;4.53;;
72439;SDS011;60446;50.752;4.352;2023-05-07T13:18:38;12.52;;;5.15;;
72439;SDS011;60446;50.752;4.352;2023-05-07T13:21:07;11.52;;;5.20;;
72439;SDS011;60446;50.752;4.352;2023-05-07T13:23:34;10.57;;;4.40;;
72439;SDS011;60446;50.752;4.352;2023-05-07T13:26:01;11.48;;;4.93;;
72439;SDS011;60446;50.752;4.352;2023-05-07T13:28:40;12.00;;;4.47;;
72439;SDS011;60446;50.752;4.352;2023-05-07T13:31:08;11.20;;;4.78;;
72439;SDS011;60446;50.752;4.352;2023-05-07T13:33:35;11.15;;;4.35;;
72439;SDS011;60446;50.752;4.352;2023-05-07T13:36:02;11.23;;;4.78;;
72439;SDS011;60446;50.752;4.352;2023-05-07T13:38:31;10.45;;;4.82;;
72439;SDS011;60446;50.752;4.352;2023-05-07T13:40:59;12.17;;;5.37;;
72439;SDS011;60446;50.752;4.352;2023-05-07T13:43:26;11.55;;;5.10;;
72439;SDS011;60446;50.752;4.352;2023-05-07T13:45:53;11.90;;;5.40;;
72439;SDS011;60446;50.752;4.352;2023-05-07T13:48:20;13.98;;;5.07;;
72439;SDS011;60446;50.752;4.352;2023-05-07T13:50:47;13.77;;;5.93;;
72439;SDS011;60446;50.752;4.352;2023-05-07T13:53:14;11.60;;;5.10;;
72439;SDS011;60446;50.752;4.352;2023-05-07T13:55:44;13.80;;;5.18;;
72439;SDS011;60446;50.752;4.352;2023-05-07T13:58:12;12.40;;;5.65;;
72439;SDS011;60446;50.752;4.352;2023-05-07T14:00:40;11.30;;;5.50;;
72439;SDS011;60446;50.752;4.352;2023-05-07T14:03:07;13.70;;;5.30;;
72439;SDS011;60446;50.752;4.352;2023-05-07T14:05:34;10.10;;;4.67;;
72439;SDS011;60446;50.752;4.352;2023-05-07T14:08:02;11.40;;;4.88;;
72439;SDS011;60446;50.752;4.352;2023-05-07T14:10:30;12.10;;;5.50;;
72439;SDS011;60446;50.752;4.352;2023-05-07T14:13:00;11.95;;;5.28;;
72439;SDS011;60446;50.752;4.352;2023-05-07T14:15:28;11.15;;;5.43;;
72439;SDS011;60446;50.752;4.352;2023-05-07T14:17:55;10.97;;;5.27;;
72439;SDS011;60446;50.752;4.352;2023-05-07T14:20:24;10.15;;;5.15;;
72439;SDS011;60446;50.752;4.352;2023-05-07T14:22:52;11.30;;;5.22;;
72439;SDS011;60446;50.752;4.352;2023-05-07T14:25:20;10.63;;;4.80;;
72439;SDS011;60446;50.752;4.352;2023-05-07T14:27:50;10.40;;;5.00;;
72439;SDS011;60446;50.752;4.352;2023-05-07T14:30:17;12.00;;;5.03;;
72439;SDS011;60446;50.752;4.352;2023-05-07T14:32:44;12.20;;;4.88;;
72439;SDS011;60446;50.752;4.352;2023-05-07T14:35:12;12.45;;;5.20;;
72439;SDS011;60446;50.752;4.352;2023-05-07T14:37:39;11.57;;;5.25;;
72439;SDS011;60446;50.752;4.352;2023-05-07T14:40:06;12.05;;;5.00;;
72439;SDS011;60446;50.752;4.352;2023-05-07T14:42:35;12.87;;;5.43;;
72439;SDS011;60446;50.752;4.352;2023-05-07T14:45:02;12.20;;;5.55;;
72439;SDS011;60446;50.752;4.352;2023-05-07T14:47:30;10.93;;;5.60;;
72439;SDS011;60446;50.752;4.352;2023-05-07T14:49:58;10.48;;;5.20;;
72439;SDS011;60446;50.752;4.352;2023-05-07T14:52:27;12.35;;;5.75;;
72439;SDS011;60446;50.752;4.352;2023-05-07T14:54:54;11.63;;;5.90;;
72439;SDS011;60446;50.752;4.352;2023-05-07T14:57:21;12.65;;;5.97;;
72439;SDS011;60446;50.752;4.352;2023-05-07T14:59:49;13.07;;;6.13;;
72439;SDS011;60446;50.752;4.352;2023-05-07T15:02:16;13.10;;;6.28;;
72439;SDS011;60446;50.752;4.352;2023-05-07T15:04:46;15.15;;;6.63;;
72439;SDS011;60446;50.752;4.352;2023-05-07T15:07:15;13.33;;;6.40;;
72439;SDS011;60446;50.752;4.352;2023-05-07T15:09:42;12.20;;;6.20;;
72439;SDS011;60446;50.752;4.352;2023-05-07T15:12:10;13.52;;;6.25;;
72439;SDS011;60446;50.752;4.352;2023-05-07T15:14:38;13.52;;;6.13;;
72439;SDS011;60446;50.752;4.352;2023-05-07T15:17:05;13.60;;;6.53;;